sensor_id;sensor_type;location;lat;lon;timestamp;pressure;altitude;pressure_sealevel;temperature;humidity
10796;BME280;5450;42.994;23.372;2023-03-16T00:00:41;95324.88;;;5.63;100.00
10796;BME280;5450;42.994;23.372;2023-03-16T00:03:10;95507.56;;;6.68;100.00
10796;BME280;5450;42.994;23.372;2023-03-16T00:05:45;95364.59;;;5.41;100.00
10796;BME280;5450;42.994;23.372;2023-03-16T00:08:15;95499.31;;;5.98;100.00
10796;BME280;5450;42.994;23.372;2023-03-16T00:10:42;95503.94;;;6.13;100.00
10796;BME280;5450;42.994;23.372;2023-03-16T00:13:12;95506.38;;;6.22;100.00
10796;BME280;5450;42.994;23.372;2023-03-16T00:15:39;95428.22;;;5.80;100.00
10796;BME280;5450;42.994;23.372;2023-03-16T00:18:06;95434.78;;;6.00;100.00
10796;BME280;5450;42.994;23.372;2023-03-16T00:20:35;95471.63;;;5.97;100.00
10796;BME280;5450;42.994;23.372;2023-03-16T00:23:02;95445.09;;;5.68;100.00
10796;BME280;5450;42.994;23.372;2023-03-16T00:25:29;95434.78;;;5.92;100.00
10796;BME280;5450;42.994;23.372;2023-03-16T00:27:59;95491.88;;;6.28;100.00
10796;BME280;5450;42.994;23.372;2023-03-16T00:30:29;95508.19;;;6.46;100.00
10796;BME280;5450;42.994;23.372;2023-03-16T00:33:00;95491.19;;;6.09;100.00
10796;BME280;5450;42.994;23.372;2023-03-16T00:35:29;95451.31;;;5.75;100.00
10796;BME280;5450;42.994;23.372;2023-03-16T00:38:00;95485.63;;;5.96;100.00
10796;BME280;5450;42.994;23.372;2023-03-16T00:40:28;95442.19;;;5.71;100.00
10796;BME280;5450;42.994;23.372;2023-03-16T00:42:55;95340.38;;;5.07;100.00
10796;BME280;5450;42.994;23.372;2023-03-16T00:45:23;95410.56;;;5.66;100.00
10796;BME280;5450;42.994;23.372;2023-03-16T00:47:51;95514.66;;;6.18;100.00
10796;BME280;5450;42.994;23.372;2023-03-16T00:50:25;95524.03;;;6.36;100.00
10796;BME280;5450;42.994;23.372;2023-03-16T00:52:55;95460.28;;;5.81;100.00
10796;BME280;5450;42.994;23.372;2023-03-16T00:55:26;95557.75;;;6.38;100.00
10796;BME280;5450;42.994;23.372;2023-03-16T00:57:54;95396.81;;;5.40;100.00
10796;BME280;5450;42.994;23.372;2023-03-16T01:00:21;95527.75;;;6.26;100.00
10796;BME280;5450;42.994;23.372;2023-03-16T01:02:52;95560.72;;;6.43;100.00
10796;BME280;5450;42.994;23.372;2023-03-16T01:05:19;95533.16;;;6.32;100.00
10796;BME280;5450;42.994;23.372;2023-03-16T01:07:47;95379.72;;;4.96;100.00
10796;BME280;5450;42.994;23.372;2023-03-16T01:10:32;95326.28;;;4.76;100.00
10796;BME280;5450;42.994;23.372;2023-03-16T01:13:01;95502.19;;;5.87;100.00
10796;BME280;5450;42.994;23.372;2023-03-16T01:15:29;95470.78;;;5.89;100.00
10796;BME280;5450;42.994;23.372;2023-03-16T01:18:03;95528.25;;;6.29;100.00
10796;BME280;5450;42.994;23.372;2023-03-16T01:20:30;95480.75;;;5.26;100.00
10796;BME280;5450;42.994;23.372;2023-03-16T01:22:58;95464.59;;;4.89;100.00
10796;BME280;5450;42.994;23.372;2023-03-16T01:25:26;95517.63;;;5.39;100.00
10796;BME280;5450;42.994;23.372;2023-03-16T01:27:55;95428.81;;;4.91;100.00
10796;BME280;5450;42.994;23.372;2023-03-16T01:30:24;95537.69;;;5.80;100.00
10796;BME280;5450;42.994;23.372;2023-03-16T01:32:52;95505.31;;;5.57;100.00
10796;BME280;5450;42.994;23.372;2023-03-16T01:35:20;95484.53;;;5.31;100.00
10796;BME280;5450;42.994;23.372;2023-03-16T01:37:50;95522.16;;;5.71;100.00
10796;BME280;5450;42.994;23.372;2023-03-16T01:40:17;95527.84;;;5.74;100.00
10796;BME280;5450;42.994;23.372;2023-03-16T01:43:00;95534.38;;;5.70;100.00
10796;BME280;5450;42.994;23.372;2023-03-16T01:48:40;95551.59;;;5.89;100.00
10796;BME280;5450;42.994;23.372;2023-03-16T01:51:13;95541.50;;;5.94;100.00
10796;BME280;5450;42.994;23.372;2023-03-16T01:53:43;95533.47;;;5.87;100.00
10796;BME280;5450;42.994;23.372;2023-03-16T01:56:13;95551.81;;;6.03;100.00
10796;BME280;5450;42.994;23.372;2023-03-16T01:58:47;95463.59;;;5.49;100.00
10796;BME280;5450;42.994;23.372;2023-03-16T02:01:16;95487.91;;;5.66;100.00
10796;BME280;5450;42.994;23.372;2023-03-16T02:03:43;95584.44;;;6.16;100.00
10796;BME280;5450;42.994;23.372;2023-03-16T02:06:13;95586.00;;;6.00;100.00
10796;BME280;5450;42.994;23.372;2023-03-16T02:08:43;95545.16;;;5.75;100.00
10796;BME280;5450;42.994;23.372;2023-03-16T02:11:11;95563.41;;;5.83;100.00
10796;BME280;5450;42.994;23.372;2023-03-16T02:13:43;95565.09;;;5.84;100.00
10796;BME280;5450;42.994;23.372;2023-03-16T02:16:12;95517.50;;;5.23;100.00
10796;BME280;5450;42.994;23.372;2023-03-16T02:18:44;95483.44;;;4.83;100.00
10796;BME280;5450;42.994;23.372;2023-03-16T02:21:18;95545.50;;;5.21;100.00
10796;BME280;5450;42.994;23.372;2023-03-16T02:23:50;95602.72;;;5.56;100.00
10796;BME280;5450;42.994;23.372;2023-03-16T02:26:25;95371.75;;;4.20;100.00
10796;BME280;5450;42.994;23.372;2023-03-16T02:29:09;95596.25;;;5.68;100.00
10796;BME280;5450;42.994;23.372;2023-03-16T02:31:41;95579.38;;;5.80;100.00
10796;BME280;5450;42.994;23.372;2023-03-16T02:34:09;95608.41;;;5.85;100.00
10796;BME280;5450;42.994;23.372;2023-03-16T02:36:39;95438.16;;;4.76;100.00
10796;BME280;5450;42.994;23.372;2023-03-16T02:39:09;95507.78;;;5.33;100.00
10796;BME280;5450;42.994;23.372;2023-03-16T02:41:36;95494.66;;;5.09;100.00
10796;BME280;5450;42.994;23.372;2023-03-16T02:44:35;95594.63;;;5.93;100.00
10796;BME280;5450;42.994;23.372;2023-03-16T02:47:12;95593.28;;;5.63;100.00
10796;BME280;5450;42.994;23.372;2023-03-16T02:49:43;95573.06;;;5.57;100.00
10796;BME280;5450;42.994;23.372;2023-03-16T02:52:11;95596.94;;;5.78;100.00
10796;BME280;5450;42.994;23.372;2023-03-16T02:54:38;95462.81;;;4.89;100.00
10796;BME280;5450;42.994;23.372;2023-03-16T02:57:05;95601.06;;;5.55;100.00
10796;BME280;5450;42.994;23.372;2023-03-16T02:59:34;95486.56;;;4.69;100.00
10796;BME280;5450;42.994;23.372;2023-03-16T03:02:01;95600.72;;;5.07;100.00
10796;BME280;5450;42.994;23.372;2023-03-16T03:04:30;95601.66;;;5.23;100.00
10796;BME280;5450;42.994;23.372;2023-03-16T03:06:57;95522.31;;;4.67;100.00
10796;BME280;5450;42.994;23.372;2023-03-16T03:09:30;95602.13;;;5.19;100.00
10796;BME280;5450;42.994;23.372;2023-03-16T03:11:59;95614.91;;;5.30;100.00
10796;BME280;5450;42.994;23.372;2023-03-16T03:14:26;95545.00;;;4.74;100.00
10796;BME280;5450;42.994;23.372;2023-03-16T03:16:54;95610.84;;;5.10;100.00
10796;BME280;5450;42.994;23.372;2023-03-16T03:19:21;95614.56;;;5.07;100.00
10796;BME280;5450;42.994;23.372;2023-03-16T03:21:51;95477.69;;;4.18;100.00
10796;BME280;5450;42.994;23.372;2023-03-16T03:24:23;95639.84;;;4.80;100.00
10796;BME280;5450;42.994;23.372;2023-03-16T03:26:57;95581.47;;;4.47;100.00
10796;BME280;5450;42.994;23.372;2023-03-16T03:29:25;95629.59;;;4.78;100.00
10796;BME280;5450;42.994;23.372;2023-03-16T03:31:59;95627.28;;;4.57;100.00
10796;BME280;5450;42.994;23.372;2023-03-16T03:34:26;95601.56;;;4.54;100.00
10796;BME280;5450;42.994;23.372;2023-03-16T03:36:56;95641.03;;;4.85;100.00
10796;BME280;5450;42.994;23.372;2023-03-16T03:39:25;95497.09;;;3.79;100.00
10796;BME280;5450;42.994;23.372;2023-03-16T03:41:52;95672.03;;;4.79;100.00
10796;BME280;5450;42.994;23.372;2023-03-16T03:44:20;95607.44;;;4.56;100.00
10796;BME280;5450;42.994;23.372;2023-03-16T03:46:47;95664.81;;;4.73;100.00
10796;BME280;5450;42.994;23.372;2023-03-16T03:49:14;95659.00;;;4.43;100.00
10796;BME280;5450;42.994;23.372;2023-03-16T03:51:42;95669.88;;;4.56;100.00
10796;BME280;5450;42.994;23.372;2023-03-16T03:54:10;95569.03;;;4.06;100.00
10796;BME280;5450;42.994;23.372;2023-03-16T03:56:37;95554.56;;;3.76;100.00
10796;BME280;5450;42.994;23.372;2023-03-16T03:59:04;95648.31;;;3.82;100.00
10796;BME280;5450;42.994;23.372;2023-03-16T04:01:31;95690.16;;;3.89;100.00
10796;BME280;5450;42.994;23.372;2023-03-16T04:03:58;95646.16;;;3.78;100.00
10796;BME280;5450;42.994;23.372;2023-03-16T04:06:26;95684.06;;;4.08;100.00
10796;BME280;5450;42.994;23.372;2023-03-16T04:08:54;95660.72;;;3.52;100.00
10796;BME280;5450;42.994;23.372;2023-03-16T04:11:23;95636.59;;;3.23;100.00
10796;BME280;5450;42.994;23.372;2023-03-16T04:13:50;95539.81;;;2.36;100.00
10796;BME280;5450;42.994;23.372;2023-03-16T04:16:19;95678.63;;;3.55;100.00
10796;BME280;5450;42.994;23.372;2023-03-16T04:18:46;95570.94;;;2.93;100.00
10796;BME280;5450;42.994;23.372;2023-03-16T04:21:15;95724.38;;;3.75;100.00
10796;BME280;5450;42.994;23.372;2023-03-16T04:23:44;95730.72;;;3.44;100.00
10796;BME280;5450;42.994;23.372;2023-03-16T04:26:11;95628.25;;;2.52;100.00
10796;BME280;5450;42.994;23.372;2023-03-16T04:28:39;95535.41;;;1.89;100.00
10796;BME280;5450;42.994;23.372;2023-03-16T04:31:08;95573.91;;;2.03;100.00
10796;BME280;5450;42.994;23.372;2023-03-16T04:33:39;95653.66;;;2.58;100.00
10796;BME280;5450;42.994;23.372;2023-03-16T04:36:07;95639.75;;;2.59;100.00
10796;BME280;5450;42.994;23.372;2023-03-16T04:38:34;95724.16;;;3.40;100.00
10796;BME280;5450;42.994;23.372;2023-03-16T04:41:03;95743.56;;;3.55;100.00
10796;BME280;5450;42.994;23.372;2023-03-16T04:43:36;95729.88;;;3.62;100.00
10796;BME280;5450;42.994;23.372;2023-03-16T04:46:04;95584.59;;;2.57;100.00
10796;BME280;5450;42.994;23.372;2023-03-16T04:48:32;95619.13;;;2.86;100.00
10796;BME280;5450;42.994;23.372;2023-03-16T04:50:59;95602.63;;;2.68;100.00
10796;BME280;5450;42.994;23.372;2023-03-16T04:53:29;95666.47;;;3.36;100.00
10796;BME280;5450;42.994;23.372;2023-03-16T04:56:09;95767.56;;;3.95;100.00
10796;BME280;5450;42.994;23.372;2023-03-16T04:58:42;95607.78;;;3.06;100.00
10796;BME280;5450;42.994;23.372;2023-03-16T05:01:11;95703.63;;;3.56;100.00
10796;BME280;5450;42.994;23.372;2023-03-16T05:03:41;95668.94;;;3.19;100.00
10796;BME280;5450;42.994;23.372;2023-03-16T05:06:08;95710.84;;;3.62;100.00
10796;BME280;5450;42.994;23.372;2023-03-16T05:08:43;95751.13;;;4.04;100.00
10796;BME280;5450;42.994;23.372;2023-03-16T05:11:10;95764.63;;;4.17;100.00
10796;BME280;5450;42.994;23.372;2023-03-16T05:13:37;95762.53;;;4.30;100.00
10796;BME280;5450;42.994;23.372;2023-03-16T05:16:06;95649.91;;;3.66;100.00
10796;BME280;5450;42.994;23.372;2023-03-16T05:18:41;95806.06;;;4.28;100.00
10796;BME280;5450;42.994;23.372;2023-03-16T05:21:08;95669.97;;;3.64;100.00
10796;BME280;5450;42.994;23.372;2023-03-16T05:23:37;95773.94;;;4.10;100.00
10796;BME280;5450;42.994;23.372;2023-03-16T05:26:04;95627.97;;;3.13;100.00
10796;BME280;5450;42.994;23.372;2023-03-16T05:28:32;95706.06;;;3.57;100.00
10796;BME280;5450;42.994;23.372;2023-03-16T05:31:02;95778.53;;;3.70;100.00
10796;BME280;5450;42.994;23.372;2023-03-16T05:33:33;95804.78;;;3.48;100.00
10796;BME280;5450;42.994;23.372;2023-03-16T05:36:03;95738.78;;;3.02;100.00
10796;BME280;5450;42.994;23.372;2023-03-16T05:38:32;95754.78;;;3.27;100.00
10796;BME280;5450;42.994;23.372;2023-03-16T05:41:01;95778.00;;;3.38;100.00
10796;BME280;5450;42.994;23.372;2023-03-16T05:43:29;95620.91;;;2.38;100.00
10796;BME280;5450;42.994;23.372;2023-03-16T05:45:59;95798.78;;;3.57;100.00
10796;BME280;5450;42.994;23.372;2023-03-16T05:48:38;95774.16;;;3.61;100.00
10796;BME280;5450;42.994;23.372;2023-03-16T05:51:07;95772.25;;;3.63;100.00
10796;BME280;5450;42.994;23.372;2023-03-16T05:53:34;95803.13;;;3.85;100.00
10796;BME280;5450;42.994;23.372;2023-03-16T05:56:01;95835.41;;;3.82;100.00
10796;BME280;5450;42.994;23.372;2023-03-16T05:58:28;95791.66;;;3.59;100.00
10796;BME280;5450;42.994;23.372;2023-03-16T06:00:58;95815.31;;;3.56;100.00
10796;BME280;5450;42.994;23.372;2023-03-16T06:03:29;95828.59;;;3.72;100.00
10796;BME280;5450;42.994;23.372;2023-03-16T06:05:58;95807.25;;;3.40;100.00
10796;BME280;5450;42.994;23.372;2023-03-16T06:08:28;95826.91;;;3.33;100.00
10796;BME280;5450;42.994;23.372;2023-03-16T06:10:55;95827.75;;;3.33;100.00
10796;BME280;5450;42.994;23.372;2023-03-16T06:13:22;95806.84;;;3.35;100.00
10796;BME280;5450;42.994;23.372;2023-03-16T06:15:49;95739.44;;;3.04;100.00
10796;BME280;5450;42.994;23.372;2023-03-16T06:18:16;95719.91;;;2.81;100.00
10796;BME280;5450;42.994;23.372;2023-03-16T06:24:01;95710.13;;;2.45;100.00
10796;BME280;5450;42.994;23.372;2023-03-16T06:26:52;95840.84;;;3.32;100.00
10796;BME280;5450;42.994;23.372;2023-03-16T06:29:20;95785.03;;;2.88;100.00
10796;BME280;5450;42.994;23.372;2023-03-16T06:31:47;95801.69;;;2.85;100.00
10796;BME280;5450;42.994;23.372;2023-03-16T06:34:16;95840.31;;;2.88;100.00
10796;BME280;5450;42.994;23.372;2023-03-16T06:36:44;95870.50;;;3.39;100.00
10796;BME280;5450;42.994;23.372;2023-03-16T06:39:12;95887.09;;;3.57;100.00
10796;BME280;5450;42.994;23.372;2023-03-16T06:41:40;95825.25;;;3.32;100.00
10796;BME280;5450;42.994;23.372;2023-03-16T06:44:09;95887.09;;;3.57;100.00
10796;BME280;5450;42.994;23.372;2023-03-16T06:46:36;95867.38;;;3.45;100.00
10796;BME280;5450;42.994;23.372;2023-03-16T06:49:04;95857.38;;;3.31;100.00
10796;BME280;5450;42.994;23.372;2023-03-16T06:51:37;95754.34;;;2.44;100.00
10796;BME280;5450;42.994;23.372;2023-03-16T06:54:31;95883.94;;;3.63;100.00
10796;BME280;5450;42.994;23.372;2023-03-16T06:57:02;95878.31;;;3.58;100.00
10796;BME280;5450;42.994;23.372;2023-03-16T06:59:32;95896.50;;;3.58;100.00
10796;BME280;5450;42.994;23.372;2023-03-16T07:02:18;95886.41;;;3.55;100.00
10796;BME280;5450;42.994;23.372;2023-03-16T07:04:48;95832.22;;;3.22;100.00
10796;BME280;5450;42.994;23.372;2023-03-16T07:07:17;95872.56;;;3.45;100.00
10796;BME280;5450;42.994;23.372;2023-03-16T07:09:49;95933.59;;;3.79;100.00
10796;BME280;5450;42.994;23.372;2023-03-16T07:12:16;95717.53;;;2.59;100.00
10796;BME280;5450;42.994;23.372;2023-03-16T07:14:43;95760.16;;;2.66;100.00
10796;BME280;5450;42.994;23.372;2023-03-16T07:17:11;95924.84;;;3.80;100.00
10796;BME280;5450;42.994;23.372;2023-03-16T07:19:39;95756.28;;;2.61;100.00
10796;BME280;5450;42.994;23.372;2023-03-16T07:22:08;95776.03;;;2.92;100.00
10796;BME280;5450;42.994;23.372;2023-03-16T07:24:35;95923.22;;;3.98;100.00
10796;BME280;5450;42.994;23.372;2023-03-16T07:27:06;95912.94;;;3.97;100.00
10796;BME280;5450;42.994;23.372;2023-03-16T07:29:34;95933.34;;;4.01;100.00
10796;BME280;5450;42.994;23.372;2023-03-16T07:32:02;95914.19;;;4.02;100.00
10796;BME280;5450;42.994;23.372;2023-03-16T07:34:30;95832.94;;;3.43;100.00
10796;BME280;5450;42.994;23.372;2023-03-16T07:40:39;95958.25;;;4.13;100.00
10796;BME280;5450;42.994;23.372;2023-03-16T07:46:46;95942.66;;;4.13;100.00
10796;BME280;5450;42.994;23.372;2023-03-16T07:49:13;95937.59;;;4.21;100.00
10796;BME280;5450;42.994;23.372;2023-03-16T07:52:07;95939.63;;;4.27;100.00
10796;BME280;5450;42.994;23.372;2023-03-16T07:58:28;95968.09;;;4.38;100.00
10796;BME280;5450;42.994;23.372;2023-03-16T08:08:10;95941.78;;;4.51;100.00
10796;BME280;5450;42.994;23.372;2023-03-16T08:18:03;95839.53;;;3.66;100.00
10796;BME280;5450;42.994;23.372;2023-03-16T08:31:16;95990.56;;;4.39;100.00
10796;BME280;5450;42.994;23.372;2023-03-16T08:34:00;95850.44;;;3.60;100.00
10796;BME280;5450;42.994;23.372;2023-03-16T08:39:39;95855.94;;;3.76;100.00
10796;BME280;5450;42.994;23.372;2023-03-16T08:42:07;95909.53;;;4.15;100.00
10796;BME280;5450;42.994;23.372;2023-03-16T08:45:01;95966.97;;;4.70;100.00
10796;BME280;5450;42.994;23.372;2023-03-16T08:48:01;95975.44;;;4.81;100.00
10796;BME280;5450;42.994;23.372;2023-03-16T08:54:12;95978.53;;;5.04;100.00
10796;BME280;5450;42.994;23.372;2023-03-16T08:56:43;96007.84;;;5.06;100.00
10796;BME280;5450;42.994;23.372;2023-03-16T08:59:14;95898.44;;;4.79;100.00
10796;BME280;5450;42.994;23.372;2023-03-16T09:01:45;95969.00;;;5.22;100.00
10796;BME280;5450;42.994;23.372;2023-03-16T09:04:15;95992.59;;;5.20;100.00
10796;BME280;5450;42.994;23.372;2023-03-16T09:06:43;95997.28;;;5.17;100.00
10796;BME280;5450;42.994;23.372;2023-03-16T09:09:11;96008.53;;;5.08;100.00
10796;BME280;5450;42.994;23.372;2023-03-16T09:11:39;96019.63;;;5.10;100.00
10796;BME280;5450;42.994;23.372;2023-03-16T09:14:07;95991.97;;;5.09;100.00
10796;BME280;5450;42.994;23.372;2023-03-16T09:16:36;96024.84;;;5.10;100.00
10796;BME280;5450;42.994;23.372;2023-03-16T09:19:04;95986.59;;;5.10;100.00
10796;BME280;5450;42.994;23.372;2023-03-16T09:38:47;96009.16;;;5.29;100.00
10796;BME280;5450;42.994;23.372;2023-03-16T09:41:29;96031.75;;;5.28;100.00
10796;BME280;5450;42.994;23.372;2023-03-16T09:44:08;95972.06;;;5.08;100.00
10796;BME280;5450;42.994;23.372;2023-03-16T09:46:40;96011.75;;;5.29;100.00
10796;BME280;5450;42.994;23.372;2023-03-16T09:49:11;95967.72;;;4.99;100.00
10796;BME280;5450;42.994;23.372;2023-03-16T09:51:43;95905.63;;;4.57;100.00
10796;BME280;5450;42.994;23.372;2023-03-16T09:54:23;95982.09;;;5.03;100.00
10796;BME280;5450;42.994;23.372;2023-03-16T09:56:54;95910.25;;;4.63;100.00
10796;BME280;5450;42.994;23.372;2023-03-16T09:59:24;96016.59;;;5.24;100.00
10796;BME280;5450;42.994;23.372;2023-03-16T10:02:09;95940.50;;;4.84;100.00
10796;BME280;5450;42.994;23.372;2023-03-16T10:04:52;95952.41;;;4.96;100.00
10796;BME280;5450;42.994;23.372;2023-03-16T10:07:29;95907.84;;;4.52;100.00
10796;BME280;5450;42.994;23.372;2023-03-16T10:10:20;95965.53;;;5.04;100.00
10796;BME280;5450;42.994;23.372;2023-03-16T10:12:54;95917.25;;;4.73;100.00
10796;BME280;5450;42.994;23.372;2023-03-16T10:15:28;96041.00;;;5.50;100.00
10796;BME280;5450;42.994;23.372;2023-03-16T10:18:01;96034.16;;;5.59;100.00
10796;BME280;5450;42.994;23.372;2023-03-16T10:20:37;95927.41;;;5.03;100.00
10796;BME280;5450;42.994;23.372;2023-03-16T10:23:16;96025.31;;;5.69;100.00
10796;BME280;5450;42.994;23.372;2023-03-16T10:25:48;96043.00;;;5.75;100.00
10796;BME280;5450;42.994;23.372;2023-03-16T10:28:28;95960.00;;;5.07;100.00
10796;BME280;5450;42.994;23.372;2023-03-16T10:31:31;96024.16;;;5.54;100.00
10796;BME280;5450;42.994;23.372;2023-03-16T10:34:08;96015.84;;;5.41;100.00
10796;BME280;5450;42.994;23.372;2023-03-16T10:36:40;95955.22;;;5.12;100.00
10796;BME280;5450;42.994;23.372;2023-03-16T10:39:35;96006.72;;;5.55;100.00
10796;BME280;5450;42.994;23.372;2023-03-16T10:42:13;95924.72;;;4.95;100.00
10796;BME280;5450;42.994;23.372;2023-03-16T10:44:43;96020.75;;;5.44;100.00
10796;BME280;5450;42.994;23.372;2023-03-16T10:47:18;96013.41;;;5.30;100.00
10796;BME280;5450;42.994;23.372;2023-03-16T10:49:49;96046.59;;;5.28;100.00
10796;BME280;5450;42.994;23.372;2023-03-16T10:52:25;96025.50;;;5.21;100.00
10796;BME280;5450;42.994;23.372;2023-03-16T10:54:59;96048.63;;;5.34;100.00
10796;BME280;5450;42.994;23.372;2023-03-16T10:57:32;96000.16;;;5.14;100.00
10796;BME280;5450;42.994;23.372;2023-03-16T11:00:05;96016.13;;;5.38;100.00
10796;BME280;5450;42.994;23.372;2023-03-16T11:02:48;95929.69;;;4.79;100.00
10796;BME280;5450;42.994;23.372;2023-03-16T11:05:26;95964.94;;;5.10;100.00
10796;BME280;5450;42.994;23.372;2023-03-16T11:08:00;96021.56;;;5.54;100.00
10796;BME280;5450;42.994;23.372;2023-03-16T11:10:31;96039.38;;;5.59;100.00
10796;BME280;5450;42.994;23.372;2023-03-16T11:13:08;95974.00;;;5.06;100.00
10796;BME280;5450;42.994;23.372;2023-03-16T11:15:46;95932.41;;;4.87;100.00
10796;BME280;5450;42.994;23.372;2023-03-16T11:18:26;96028.06;;;5.68;100.00
10796;BME280;5450;42.994;23.372;2023-03-16T11:20:55;95825.16;;;4.46;100.00
10796;BME280;5450;42.994;23.372;2023-03-16T11:23:31;96065.91;;;5.72;100.00
10796;BME280;5450;42.994;23.372;2023-03-16T11:26:04;95845.13;;;4.55;100.00
10796;BME280;5450;42.994;23.372;2023-03-16T11:28:41;96025.09;;;5.63;100.00
10796;BME280;5450;42.994;23.372;2023-03-16T11:31:18;95867.13;;;4.71;100.00
10796;BME280;5450;42.994;23.372;2023-03-16T11:33:49;96005.03;;;5.63;100.00
10796;BME280;5450;42.994;23.372;2023-03-16T11:36:37;95971.59;;;5.59;100.00
10796;BME280;5450;42.994;23.372;2023-03-16T11:39:20;95991.38;;;5.52;100.00
10796;BME280;5450;42.994;23.372;2023-03-16T11:42:01;96045.00;;;5.81;100.00
10796;BME280;5450;42.994;23.372;2023-03-16T11:44:37;95989.38;;;5.63;100.00
10796;BME280;5450;42.994;23.372;2023-03-16T11:50:14;96015.38;;;5.82;100.00
10796;BME280;5450;42.994;23.372;2023-03-16T11:55:43;96041.84;;;6.15;100.00
10796;BME280;5450;42.994;23.372;2023-03-16T11:58:37;95946.44;;;5.40;100.00
10796;BME280;5450;42.994;23.372;2023-03-16T12:01:25;95843.06;;;4.59;100.00
10796;BME280;5450;42.994;23.372;2023-03-16T12:04:38;96030.31;;;5.90;100.00
10796;BME280;5450;42.994;23.372;2023-03-16T12:07:23;95995.50;;;5.54;100.00
10796;BME280;5450;42.994;23.372;2023-03-16T12:10:06;96055.69;;;5.97;100.00
10796;BME280;5450;42.994;23.372;2023-03-16T12:12:47;95965.69;;;5.57;100.00
10796;BME280;5450;42.994;23.372;2023-03-16T12:15:27;95917.66;;;5.05;100.00
10796;BME280;5450;42.994;23.372;2023-03-16T12:18:09;96053.00;;;6.07;100.00
10796;BME280;5450;42.994;23.372;2023-03-16T12:20:44;95989.38;;;5.63;100.00
10796;BME280;5450;42.994;23.372;2023-03-16T12:23:37;96044.66;;;6.03;100.00
10796;BME280;5450;42.994;23.372;2023-03-16T12:26:23;95958.53;;;5.41;100.00
10796;BME280;5450;42.994;23.372;2023-03-16T12:28:56;96017.00;;;5.83;100.00
10796;BME280;5450;42.994;23.372;2023-03-16T12:31:35;95975.28;;;5.29;100.00
10796;BME280;5450;42.994;23.372;2023-03-16T12:34:15;95882.31;;;4.75;100.00
10796;BME280;5450;42.994;23.372;2023-03-16T12:37:08;96050.66;;;5.86;100.00
10796;BME280;5450;42.994;23.372;2023-03-16T12:43:48;95994.94;;;5.23;100.00
10796;BME280;5450;42.994;23.372;2023-03-16T12:50:03;95984.81;;;5.11;100.00
10796;BME280;5450;42.994;23.372;2023-03-16T12:52:44;95891.94;;;4.65;100.00
10796;BME280;5450;42.994;23.372;2023-03-16T12:55:14;96047.03;;;5.60;100.00
10796;BME280;5450;42.994;23.372;2023-03-16T12:57:57;96016.78;;;5.40;100.00
10796;BME280;5450;42.994;23.372;2023-03-16T13:00:37;96079.94;;;5.61;100.00
10796;BME280;5450;42.994;23.372;2023-03-16T13:03:13;95978.03;;;4.91;100.00
10796;BME280;5450;42.994;23.372;2023-03-16T13:05:49;96095.72;;;5.60;100.00
10796;BME280;5450;42.994;23.372;2023-03-16T13:08:19;95958.75;;;4.65;100.00
10796;BME280;5450;42.994;23.372;2023-03-16T13:11:01;95928.66;;;4.52;100.00
10796;BME280;5450;42.994;23.372;2023-03-16T13:13:29;96018.28;;;4.96;100.00
10796;BME280;5450;42.994;23.372;2023-03-16T13:16:05;96000.34;;;4.93;100.00
10796;BME280;5450;42.994;23.372;2023-03-16T13:18:37;95903.22;;;4.27;100.00
10796;BME280;5450;42.994;23.372;2023-03-16T13:21:16;96045.78;;;5.18;100.00
10796;BME280;5450;42.994;23.372;2023-03-16T13:23:56;96099.47;;;5.48;100.00
10796;BME280;5450;42.994;23.372;2023-03-16T13:26:37;96093.31;;;5.39;100.00
10796;BME280;5450;42.994;23.372;2023-03-16T13:29:20;96045.25;;;5.05;100.00
10796;BME280;5450;42.994;23.372;2023-03-16T13:31:53;96009.16;;;4.83;100.00
10796;BME280;5450;42.994;23.372;2023-03-16T13:34:26;96106.75;;;5.34;100.00
10796;BME280;5450;42.994;23.372;2023-03-16T13:37:13;96077.59;;;5.12;100.00
10796;BME280;5450;42.994;23.372;2023-03-16T13:39:41;96129.78;;;5.39;100.00
10796;BME280;5450;42.994;23.372;2023-03-16T13:42:21;95937.72;;;4.20;100.00
10796;BME280;5450;42.994;23.372;2023-03-16T13:44:54;96031.88;;;4.71;100.00
10796;BME280;5450;42.994;23.372;2023-03-16T13:47:24;95993.84;;;4.41;100.00
10796;BME280;5450;42.994;23.372;2023-03-16T13:49:55;96022.72;;;4.38;100.00
10796;BME280;5450;42.994;23.372;2023-03-16T13:52:28;96093.50;;;4.90;100.00
10796;BME280;5450;42.994;23.372;2023-03-16T13:55:02;96056.94;;;4.72;100.00
10796;BME280;5450;42.994;23.372;2023-03-16T13:57:37;96107.78;;;4.95;100.00
10796;BME280;5450;42.994;23.372;2023-03-16T14:00:14;96066.69;;;4.60;100.00
10796;BME280;5450;42.994;23.372;2023-03-16T14:02:50;96023.66;;;4.18;100.00
10796;BME280;5450;42.994;23.372;2023-03-16T14:05:23;96039.53;;;4.15;100.00
10796;BME280;5450;42.994;23.372;2023-03-16T14:07:53;96082.00;;;4.63;100.00
10796;BME280;5450;42.994;23.372;2023-03-16T14:10:22;96022.81;;;4.08;100.00
10796;BME280;5450;42.994;23.372;2023-03-16T14:12:52;96034.88;;;4.19;100.00
10796;BME280;5450;42.994;23.372;2023-03-16T14:15:25;95986.25;;;3.91;100.00
10796;BME280;5450;42.994;23.372;2023-03-16T14:18:12;96186.97;;;5.02;100.00
10796;BME280;5450;42.994;23.372;2023-03-16T14:20:41;96147.78;;;5.04;100.00
10796;BME280;5450;42.994;23.372;2023-03-16T14:23:21;96058.72;;;4.43;100.00
10796;BME280;5450;42.994;23.372;2023-03-16T14:25:52;96126.94;;;4.85;100.00
10796;BME280;5450;42.994;23.372;2023-03-16T14:28:27;96186.16;;;5.21;100.00
10796;BME280;5450;42.994;23.372;2023-03-16T14:31:04;96155.31;;;5.26;100.00
10796;BME280;5450;42.994;23.372;2023-03-16T14:33:36;96173.81;;;5.23;100.00
10796;BME280;5450;42.994;23.372;2023-03-16T14:36:12;96150.09;;;5.26;100.00
10796;BME280;5450;42.994;23.372;2023-03-16T14:38:49;96140.66;;;5.06;100.00
10796;BME280;5450;42.994;23.372;2023-03-16T14:41:21;96101.72;;;4.95;100.00
10796;BME280;5450;42.994;23.372;2023-03-16T14:43:57;96115.59;;;4.76;100.00
10796;BME280;5450;42.994;23.372;2023-03-16T14:46:27;96094.03;;;4.55;100.00
10796;BME280;5450;42.994;23.372;2023-03-16T14:49:00;96013.78;;;3.93;100.00